INFORMACIÓN METAR y TAF
METAR FOR LEIB
ADDS - METARS form results

(0429 UTC 22 June 2021)
Data provider http://aviationweather.gov/metar/data/
 
METAR text: LEIB 220400Z 23003KT 200V290 CAVOK 21/17 Q1010 NOSIG
Conditions at: LEIB (IBIZA/ES CODOLA , ES) observed 0400 UTC 22 June 2021
Temperature: 21.0°C (70°F)
Dewpoint: 17.0°C (63°F) [RH = 78%]
Pressure (altimeter): 29.82 inches Hg (1010.0 mb)
Winds: from the SW (230 degrees) at 3 MPH (3 knots; 1.5 m/s)
Visibility: 6 or more miles (10+ km)
Ceiling: ceiling and visibility are OK
Clouds: unknown
Weather: no significant weather observed at this time

METAR text: LEIB 220330Z 25004KT 220V280 CAVOK 20/19 Q1010 NOSIG
Conditions at: LEIB (IBIZA/ES CODOLA , ES) observed 0330 UTC 22 June 2021
Temperature: 20.0°C (68°F)
Dewpoint: 19.0°C (66°F) [RH = 94%]
Pressure (altimeter): 29.82 inches Hg (1010.0 mb)
Winds: from the WSW (250 degrees) at 5 MPH (4 knots; 2.1 m/s)
Visibility: 6 or more miles (10+ km)
Ceiling: ceiling and visibility are OK
Clouds: unknown
Weather: no significant weather observed at this time

Forecast for: LEIB (IBIZA/ES CODOLA , ES)
Text: TAF LEIB 220200Z 2203/2303 24008KT 9999 FEW012 TX29/2212Z TN20/2206Z
Forecast period: 0300 to 0400 UTC 22 June 2021
Forecast type: FROM: standard forecast or significant change
Winds: from the WSW (240 degrees) at 9 MPH (8 knots; 4.1 m/s)
Visibility: 6 or more miles (10+ km)
Ceiling: at least 12,000 feet AGL
Clouds: few clouds at 1200 feet AGL
Weather: no significant weather forecast for this period
Text: BECMG 2204/2206 08012KT
Forecast period: 0400 to 1800 UTC 22 June 2021
Forecast type: BECOMING: Conditions expected to become as follows by 0600 UTC 22 June 2021
Winds: from the E (80 degrees) at 14 MPH (12 knots; 6.2 m/s)
Visibility: 6 or more miles (10+ km)
Ceiling: at least 12,000 feet AGL
Clouds: few clouds at 1200 feet AGL
Weather: no significant weather forecast for this period
Text: BECMG 2218/2220 VRB04KT
Forecast period: 1800 UTC 22 June 2021 to 0300 UTC 23 June 2021
Forecast type: BECOMING: Conditions expected to become as follows by 2000 UTC 22 June 2021
Winds: variable direction winds at 5 MPH (4 knots; 2.1 m/s)
Visibility: 6 or more miles (10+ km)
Ceiling: at least 12,000 feet AGL
Clouds: few clouds at 1200 feet AGL
Weather: no significant weather forecast for this period

 MAPA DE AEROPUERTO

 INFORMACIÓN DE PISTA
Pista 06 Longitud 9186 ft Ancho 148 ft
Elevación 13 ft Umbral desplazado 0 ft Rumbo de pista 62
Pista 24 Longitud 9186 ft Ancho 148 ft
Elevación 16 ft Umbral desplazado 0 ft Rumbo de pista 242

 FRECUANCIAS DEL AEROPUERTO
Tipo APP Nombre PALMA APP Frecuencia 118.125 MHZ
Tipo APP Nombre APP Frecuencia 119.8 MHZ
Tipo ATIS Nombre ATIS Frecuencia 117.8 MHZ
Tipo GND Nombre GND Frecuencia 121.8 MHZ
Tipo TWR Nombre TWR Frecuencia 118.5 MHZ

 RADIO AYUDAS DEL AEROPUERTO
Tipo VOR-DME Nombre Ibiza Frecuencia 117800 KHZ
Tipo NDB Nombre Ibiza Frecuencia 394 KHZ



Powered by Virtual Airlines Manager [v2.6.2]